createdAt,value
2019-03-13T00:01:45.392Z,3.90
2019-03-13T00:06:47.019Z,3.20
2019-03-13T00:11:50.508Z,2.90
2019-03-13T00:16:52.124Z,2.83
2019-03-13T00:21:53.794Z,3.40
2019-03-13T00:26:55.424Z,4.07
2019-03-13T00:31:59.531Z,3.77
2019-03-13T00:37:00.649Z,3.80
2019-03-13T00:42:02.229Z,4.47
2019-03-13T00:47:03.923Z,2.70
2019-03-13T00:52:05.572Z,3.40
2019-03-13T00:57:07.163Z,3.10
2019-03-13T01:02:08.822Z,3.50
2019-03-13T01:07:10.466Z,2.97
2019-03-13T01:12:12.072Z,3.33
2019-03-13T01:17:13.762Z,2.47
2019-03-13T01:22:15.356Z,2.83
2019-03-13T01:27:17.011Z,3.30
2019-03-13T01:32:18.816Z,3.30
2019-03-13T01:37:20.421Z,3.70
2019-03-13T01:42:22.083Z,3.40
2019-03-13T01:47:23.739Z,4.17
2019-03-13T01:52:25.363Z,3.40
2019-03-13T01:57:26.966Z,3.83
2019-03-13T02:02:28.681Z,2.90
2019-03-13T02:07:30.389Z,3.27
2019-03-13T02:12:32.068Z,4.13
2019-03-13T02:17:33.649Z,3.93
2019-03-13T02:22:35.233Z,4.57
2019-03-13T02:27:37.964Z,3.87
2019-03-13T02:32:39.633Z,4.20
2019-03-13T02:37:41.228Z,4.10
2019-03-13T02:42:42.904Z,3.60
2019-03-13T02:47:44.437Z,4.30
2019-03-13T02:52:46.166Z,3.70
2019-03-13T02:57:47.750Z,4.37
2019-03-13T03:02:49.314Z,4.87
2019-03-13T03:07:50.915Z,3.57
2019-03-13T03:12:52.561Z,4.07
2019-03-13T03:17:54.245Z,4.07
2019-03-13T03:22:55.810Z,4.37
2019-03-13T03:27:57.389Z,3.80
2019-03-13T03:32:59.101Z,4.97
2019-03-13T03:38:00.657Z,4.50
2019-03-13T03:43:02.267Z,4.30
2019-03-13T03:48:03.858Z,3.93
2019-03-13T03:53:05.444Z,4.67
2019-03-13T03:58:07.047Z,3.70
2019-03-13T04:03:08.646Z,4.40
2019-03-13T04:08:10.338Z,5.07
2019-03-13T04:13:11.942Z,4.93
2019-03-13T04:18:13.621Z,4.97
2019-03-13T04:23:15.240Z,5.13
2019-03-13T04:28:16.835Z,4.47
2019-03-13T04:33:18.455Z,4.67
2019-03-13T04:38:20.104Z,5.43
2019-03-13T04:43:21.652Z,5.43
2019-03-13T04:48:23.297Z,5.50
2019-03-13T04:53:24.863Z,5.20
2019-03-13T04:58:26.560Z,4.57
2019-03-13T05:03:28.219Z,5.27
2019-03-13T05:09:08.268Z,6.10
2019-03-13T05:14:09.816Z,5.90
2019-03-13T05:19:11.416Z,5.13
2019-03-13T05:24:13.048Z,5.37
2019-03-13T05:29:14.682Z,6.67
2019-03-13T05:34:16.278Z,6.97
2019-03-13T05:39:17.867Z,6.07
2019-03-13T05:44:19.547Z,5.30
2019-03-13T05:49:21.182Z,4.90
2019-03-13T05:54:22.815Z,4.87
2019-03-13T05:59:24.442Z,4.93
2019-03-13T06:04:26.181Z,5.30
2019-03-13T06:09:28.166Z,5.53
2019-03-13T06:14:29.830Z,5.30
2019-03-13T06:19:31.412Z,7.42
2019-03-13T06:24:33.042Z,5.00
2019-03-13T06:29:34.713Z,5.43
2019-03-13T06:34:36.426Z,5.13
2019-03-13T06:39:38.023Z,5.37
2019-03-13T06:44:40.738Z,5.80
2019-03-13T06:49:42.376Z,5.60
2019-03-13T06:54:45.142Z,5.50
2019-03-13T06:59:46.744Z,4.70
2019-03-13T07:04:48.379Z,6.07
2019-03-13T07:09:50.187Z,5.27
2019-03-13T07:14:51.834Z,4.60
2019-03-13T07:19:53.535Z,5.30
2019-03-13T07:24:55.282Z,4.33
2019-03-13T07:29:57.013Z,4.83
2019-03-13T07:34:58.600Z,4.00
2019-03-13T07:40:00.391Z,5.23
2019-03-13T07:45:02.411Z,5.17
2019-03-13T07:50:04.260Z,4.70
2019-03-13T07:55:05.851Z,5.90
2019-03-13T08:00:08.685Z,5.27
2019-03-13T08:05:16.632Z,5.77
2019-03-13T08:10:18.268Z,5.13
2019-03-13T08:15:19.916Z,5.50
2019-03-13T08:20:21.662Z,6.17
2019-03-13T08:25:23.259Z,5.90
2019-03-13T08:30:24.953Z,5.90
2019-03-13T08:35:26.649Z,6.30
2019-03-13T08:40:28.323Z,5.17
2019-03-13T08:45:30.168Z,5.90
2019-03-13T08:50:31.953Z,5.33
2019-03-13T08:55:35.297Z,4.83
2019-03-13T09:00:40.063Z,4.87
2019-03-13T09:05:41.730Z,5.43
2019-03-13T09:10:43.304Z,4.70
2019-03-13T09:15:44.939Z,4.60
2019-03-13T09:20:46.527Z,5.37
2019-03-13T09:25:48.172Z,5.10
2019-03-13T09:30:49.779Z,6.20
2019-03-13T09:35:51.445Z,5.10
2019-03-13T09:40:53.081Z,4.03
2019-03-13T09:45:54.699Z,5.20
2019-03-13T09:50:56.309Z,5.03
2019-03-13T09:55:57.874Z,6.23
2019-03-13T10:00:59.526Z,4.47
2019-03-13T10:06:01.178Z,4.70
2019-03-13T10:11:03.842Z,4.70
2019-03-13T10:16:05.443Z,5.13
2019-03-13T10:21:07.032Z,4.97
2019-03-13T10:26:08.634Z,3.87
2019-03-13T10:31:10.381Z,4.97
2019-03-13T10:36:12.007Z,4.00
2019-03-13T10:41:13.678Z,4.17
2019-03-13T10:46:15.334Z,3.90
2019-03-13T10:51:16.931Z,4.60
2019-03-13T10:56:19.654Z,4.57
2019-03-13T11:01:21.996Z,4.17
2019-03-13T11:06:23.711Z,4.33
2019-03-13T11:11:25.381Z,8.13
2019-03-13T11:16:27.094Z,5.10
2019-03-13T11:21:28.704Z,5.93
2019-03-13T11:26:30.849Z,5.03
2019-03-13T11:31:32.548Z,6.87
2019-03-13T11:36:35.191Z,6.10
2019-03-13T11:41:37.767Z,5.27
2019-03-13T11:46:39.493Z,6.73
2019-03-13T11:51:41.164Z,6.00
2019-03-13T11:56:42.840Z,5.47
2019-03-13T12:01:45.909Z,5.20
2019-03-13T12:06:48.109Z,6.53
2019-03-13T12:11:49.672Z,5.00
2019-03-13T12:16:51.259Z,5.23
2019-03-13T12:21:52.892Z,4.80
2019-03-13T12:26:54.513Z,4.30
2019-03-13T12:31:56.215Z,4.93
2019-03-13T12:36:57.868Z,5.70
2019-03-13T12:41:59.571Z,5.00
2019-03-13T12:47:01.309Z,4.43
2019-03-13T12:52:04.263Z,5.20
2019-03-13T12:57:05.773Z,5.43
2019-03-13T13:02:07.393Z,4.83
2019-03-13T13:07:09.020Z,6.23
2019-03-13T13:12:10.827Z,5.57
2019-03-13T13:17:12.566Z,4.80
2019-03-13T13:22:14.205Z,3.90
2019-03-13T13:27:15.821Z,3.13
2019-03-13T13:32:17.484Z,4.70
2019-03-13T13:37:19.193Z,4.03
2019-03-13T13:42:20.915Z,4.87
2019-03-13T13:47:22.512Z,5.37
2019-03-13T13:52:25.144Z,4.53
2019-03-13T13:57:26.709Z,5.03
2019-03-13T14:02:28.341Z,4.40
2019-03-13T14:07:29.878Z,3.70
2019-03-13T14:12:31.377Z,3.50
2019-03-13T14:17:33.052Z,3.20
2019-03-13T14:22:34.622Z,3.00
2019-03-13T14:27:36.335Z,3.93
2019-03-13T14:32:37.944Z,4.27
2019-03-13T14:37:39.523Z,4.43
2019-03-13T14:42:41.137Z,3.60
2019-03-13T14:47:42.698Z,4.80
2019-03-13T14:52:44.375Z,4.80
2019-03-13T14:57:46.096Z,4.23
2019-03-13T15:02:50.031Z,4.63
2019-03-13T15:07:51.917Z,4.80
2019-03-13T15:12:53.494Z,3.93
2019-03-13T15:17:55.155Z,4.07
2019-03-13T15:22:56.793Z,3.60
2019-03-13T15:28:01.022Z,4.70
2019-03-13T15:33:02.615Z,4.67
2019-03-13T15:38:04.450Z,4.53
2019-03-13T15:43:06.146Z,5.33
2019-03-13T15:48:07.891Z,5.10
2019-03-13T15:53:09.958Z,5.40
2019-03-13T15:58:11.917Z,4.67
2019-03-13T16:03:13.579Z,5.07
2019-03-13T16:08:15.165Z,4.77
2019-03-13T16:13:16.994Z,4.63
2019-03-13T16:18:18.623Z,4.13
2019-03-13T16:23:22.858Z,4.53
2019-03-13T16:28:34.875Z,3.93
2019-03-13T16:33:36.472Z,5.43
2019-03-13T16:38:38.113Z,4.90
2019-03-13T16:43:42.889Z,4.73
2019-03-13T16:48:44.470Z,5.73
2019-03-13T16:53:46.075Z,5.27
2019-03-13T16:58:48.559Z,4.80
2019-03-13T17:03:52.812Z,4.93
2019-03-13T17:08:54.611Z,4.87
2019-03-13T17:13:59.580Z,5.27
2019-03-13T17:19:03.448Z,5.27
2019-03-13T17:24:05.002Z,3.37
2019-03-13T17:29:07.055Z,3.03
2019-03-13T17:34:08.705Z,2.90
2019-03-13T17:39:10.267Z,3.67
2019-03-13T17:44:11.867Z,5.17
2019-03-13T17:49:13.559Z,3.63
2019-03-13T17:54:15.133Z,3.65
2019-03-13T17:59:16.827Z,3.40
2019-03-13T18:04:18.588Z,4.00
2019-03-13T18:09:20.167Z,3.40
2019-03-13T18:14:21.805Z,4.17
2019-03-13T18:19:23.596Z,3.87
2019-03-13T18:24:27.650Z,4.70
2019-03-13T18:29:29.248Z,4.60
2019-03-13T18:34:30.815Z,4.23
2019-03-13T18:39:32.426Z,5.13
2019-03-13T18:44:34.004Z,4.53
2019-03-13T18:49:35.696Z,4.90
2019-03-13T18:54:37.375Z,4.77
2019-03-13T18:59:38.938Z,5.57
2019-03-13T19:04:40.672Z,4.90
2019-03-13T19:09:42.243Z,5.97
2019-03-13T19:14:43.937Z,6.10
2019-03-13T19:19:45.557Z,6.30
2019-03-13T19:24:47.100Z,5.27
2019-03-13T19:29:48.663Z,4.77
2019-03-13T19:34:50.270Z,3.30
2019-03-13T19:39:52.864Z,3.63
2019-03-13T19:44:54.538Z,3.20
2019-03-13T19:49:56.113Z,3.37
2019-03-13T19:54:57.691Z,4.20
2019-03-13T19:59:59.285Z,3.10
2019-03-13T20:05:00.905Z,3.43
2019-03-13T20:10:03.032Z,2.80
2019-03-13T20:15:05.741Z,2.77
2019-03-13T20:20:09.643Z,2.60
2019-03-13T20:25:11.460Z,2.93
2019-03-13T20:30:14.903Z,2.93
2019-03-13T20:35:16.551Z,2.90
2019-03-13T20:40:18.571Z,2.67
2019-03-13T20:45:20.836Z,2.70
2019-03-13T20:50:35.133Z,2.50
2019-03-13T20:55:26.251Z,2.90
2019-03-13T21:00:28.210Z,4.43
2019-03-13T21:05:30.947Z,3.30
2019-03-13T21:10:32.475Z,3.67
2019-03-13T21:15:34.253Z,5.23
2019-03-13T21:20:36.037Z,4.57
2019-03-13T21:25:37.970Z,5.40
2019-03-13T21:30:39.802Z,4.23
2019-03-13T21:35:41.422Z,3.90
2019-03-13T21:40:43.032Z,4.30
2019-03-13T21:45:44.660Z,4.87
2019-03-13T21:50:46.226Z,5.30
2019-03-13T21:55:47.833Z,5.67
2019-03-13T22:00:49.550Z,6.70
2019-03-13T22:05:51.225Z,5.60
2019-03-13T22:10:52.849Z,5.33
2019-03-13T22:15:54.444Z,5.60
2019-03-13T22:20:56.049Z,6.80
2019-03-13T22:25:58.125Z,4.70
2019-03-13T22:31:02.617Z,4.53
2019-03-13T22:36:03.517Z,5.37
2019-03-13T22:41:05.283Z,4.87
2019-03-13T22:46:06.937Z,4.80
2019-03-13T22:51:08.545Z,4.63
2019-03-13T22:56:10.118Z,4.57
2019-03-13T23:01:11.843Z,5.30
2019-03-13T23:06:13.401Z,3.67
2019-03-13T23:11:14.981Z,4.80
2019-03-13T23:16:16.607Z,4.03
2019-03-13T23:21:18.202Z,4.40
2019-03-13T23:26:19.746Z,5.30
2019-03-13T23:31:21.600Z,4.43
2019-03-13T23:36:23.198Z,4.73
2019-03-13T23:41:24.955Z,6.03
2019-03-13T23:46:27.327Z,4.83
2019-03-13T23:51:30.215Z,4.33
2019-03-13T23:56:31.776Z,3.70
